Time;durP1;ratioP1;P1;durP2;ratioP2;P2;SDS_P1;SDS_P2;PMS_P1;PMS_P2;Temp;Humidity;BMP_temperature;BMP_pressure;BME280_temperature;BME280_humidity;BME280_pressure;Samples;Min_cycle;Max_cycle;Signal;HPM_P1;HPM_P2
2021/06/09 00:00:53;;;;;;;8.90;5.90;;;512.00;2124.80;;;;;;5108901;27;20026;-89
2021/06/09 00:03:20;;;;;;;10.60;6.35;;;487.30;2150.40;;;;;;5097993;28;20115;-90
2021/06/09 00:05:47;;;;;;;8.98;6.13;;;487.30;2150.40;;;;;;5096845;28;20114;-89
2021/06/09 00:08:13;;;;;;;10.10;7.05;;;487.30;2150.40;;;;;;5117340;27;20030;-91
2021/06/09 00:10:39;;;;;;;6.85;6.10;;;487.20;2150.40;;;;;;5111536;27;20524;-90
2021/06/09 00:13:05;;;;;;;9.30;6.13;;;487.10;2176.00;;;;;;5101789;27;20484;-90
2021/06/09 00:15:31;;;;;;;7.07;5.85;;;487.20;2176.00;;;;;;5107496;28;20020;-90
2021/06/09 00:17:57;;;;;;;9.48;6.05;;;487.10;2176.00;;;;;;5101545;28;20053;-90
2021/06/09 00:20:25;;;;;;;8.73;6.00;;;487.10;2176.00;;;;;;5113322;28;20019;-89
2021/06/09 00:22:51;;;;;;;6.72;5.85;;;487.10;2176.00;;;;;;5096185;28;20027;-89
2021/06/09 00:25:18;;;;;;;8.88;6.40;;;487.00;2176.00;;;;;;5113986;28;20099;-89
2021/06/09 00:27:47;;;;;;;8.32;5.85;;;487.00;2176.00;;;;;;5113513;28;20015;-87
2021/06/09 00:30:17;;;;;;;7.57;6.45;;;487.00;2176.00;;;;;;5113793;28;20028;-88
2021/06/09 00:32:44;;;;;;;7.65;5.75;;;486.90;2176.00;;;;;;5096007;28;20027;-89
2021/06/09 00:35:10;;;;;;;9.45;6.68;;;486.90;2176.00;;;;;;5096077;28;20392;-89
2021/06/09 00:37:36;;;;;;;9.15;6.72;;;486.90;2201.60;;;;;;5085924;28;20024;-89
2021/06/09 00:40:03;;;;;;;7.68;6.13;;;486.90;2176.00;;;;;;5093640;28;20028;-89
2021/06/09 00:42:28;;;;;;;6.97;5.60;;;486.80;2176.00;;;;;;5095413;28;20035;-88
2021/06/09 00:44:54;;;;;;;9.85;6.55;;;486.70;2201.60;;;;;;5095518;28;20031;-87
2021/06/09 00:47:22;;;;;;;15.38;5.97;;;486.70;2201.60;;;;;;5095724;28;20028;-90
2021/06/09 00:49:49;;;;;;;8.43;5.65;;;486.60;2201.60;;;;;;5095122;28;20050;-87
2021/06/09 00:52:15;;;;;;;8.35;6.38;;;486.60;2201.60;;;;;;5092334;28;20020;-89
2021/06/09 00:54:41;;;;;;;8.40;6.60;;;486.60;2201.60;;;;;;5092034;28;20016;-88
2021/06/09 00:57:08;;;;;;;9.20;6.72;;;486.60;2227.20;;;;;;5092388;28;20034;-89
2021/06/09 00:59:36;;;;;;;7.15;5.78;;;486.60;2227.20;;;;;;5093173;28;20056;-89
2021/06/09 01:02:02;;;;;;;9.38;5.93;;;486.50;2227.20;;;;;;5089164;28;20507;-88
2021/06/09 01:04:28;;;;;;;11.02;7.18;;;486.50;2227.20;;;;;;5074955;28;20081;-89
2021/06/09 01:06:53;;;;;;;8.32;5.68;;;486.50;2227.20;;;;;;5080825;28;20027;-89
2021/06/09 01:09:20;;;;;;;10.00;7.88;;;486.40;2252.80;;;;;;5094711;28;20425;-86
2021/06/09 01:11:46;;;;;;;11.35;6.90;;;486.40;2252.80;;;;;;5095661;28;20026;-86
2021/06/09 01:14:12;;;;;;;10.30;6.28;;;486.40;2252.80;;;;;;5091635;28;20043;-87
2021/06/09 01:16:38;;;;;;;7.63;6.00;;;486.40;2252.80;;;;;;5094684;28;20024;-86
2021/06/09 01:19:04;;;;;;;12.77;6.32;;;486.40;2252.80;;;;;;5095292;28;20027;-88
2021/06/09 01:21:31;;;;;;;7.78;6.18;;;461.70;2252.80;;;;;;5112330;28;20042;-88
2021/06/09 01:23:58;;;;;;;7.78;6.18;;;486.40;2252.80;;;;;;5095094;28;20028;-89
2021/06/09 01:26:27;;;;;;;8.32;7.07;;;461.70;2252.80;;;;;;5094459;28;20031;-88
2021/06/09 01:28:54;;;;;;;12.27;6.90;;;461.70;2278.40;;;;;;5094653;28;20065;-88
2021/06/09 01:31:22;;;;;;;8.23;7.00;;;461.70;2278.40;;;;;;5087322;28;20047;-87
2021/06/09 01:33:47;;;;;;;9.68;7.57;;;461.60;2278.40;;;;;;5082656;28;20106;-88
2021/06/09 01:36:13;;;;;;;8.40;6.90;;;461.60;2278.40;;;;;;5112575;28;20053;-85
2021/06/09 01:38:39;;;;;;;8.63;6.72;;;461.50;2304.00;;;;;;5085476;28;20067;-86
2021/06/09 01:41:05;;;;;;;9.27;7.97;;;461.50;2304.00;;;;;;5090320;28;20025;-88
2021/06/09 01:43:31;;;;;;;8.48;7.57;;;461.50;2304.00;;;;;;5094003;28;20028;-86
2021/06/09 01:45:57;;;;;;;10.20;7.57;;;461.40;2304.00;;;;;;5112355;28;20491;-86
2021/06/09 01:48:23;;;;;;;8.00;6.60;;;461.40;2329.60;;;;;;5100261;28;20476;-86
2021/06/09 01:50:49;;;;;;;8.48;6.47;;;461.40;2329.60;;;;;;5105117;28;20027;-89
2021/06/09 01:53:15;;;;;;;9.75;7.30;;;461.30;2329.60;;;;;;5123155;27;20072;-90
2021/06/09 01:55:41;;;;;;;10.15;6.35;;;461.30;2329.60;;;;;;5117128;28;20480;-90
2021/06/09 01:58:11;;;;;;;10.00;7.93;;;461.30;2329.60;;;;;;5100667;28;20062;-90
2021/06/09 02:00:47;;;;;;;14.23;8.00;;;461.20;2355.20;;;;;;5109473;27;20030;-90
2021/06/09 02:03:14;;;;;;;13.32;7.47;;;461.20;2355.20;;;;;;5096574;28;20027;-90
2021/06/09 02:05:41;;;;;;;8.70;7.60;;;461.20;2355.20;;;;;;5123241;27;20042;-90
2021/06/09 02:08:09;;;;;;;11.35;7.68;;;461.10;2380.80;;;;;;5095936;28;20024;-91
2021/06/09 02:10:37;;;;;;;16.77;7.72;;;461.10;2380.80;;;;;;5099542;28;20016;-90
2021/06/09 02:13:12;;;;;;;12.80;7.85;;;461.00;2380.80;;;;;;5112645;27;20026;-90
2021/06/09 02:15:39;;;;;;;12.07;8.23;;;461.00;2380.80;;;;;;5098235;28;20023;-91
2021/06/09 02:18:13;;;;;;;16.25;8.10;;;460.90;2380.80;;;;;;5111908;27;20039;-90
2021/06/09 02:20:46;;;;;;;9.85;8.30;;;460.90;2380.80;;;;;;5115969;28;20032;-89
2021/06/09 02:23:13;;;;;;;11.15;8.25;;;460.90;2380.80;;;;;;5116676;28;20038;-90
2021/06/09 02:25:45;;;;;;;13.82;8.23;;;460.80;2380.80;;;;;;5098877;28;20110;-90
2021/06/09 02:28:11;;;;;;;11.65;9.02;;;460.80;2380.80;;;;;;5098481;28;20032;-89
2021/06/09 02:30:38;;;;;;;10.52;8.00;;;460.80;2380.80;;;;;;5116494;28;20302;-88
2021/06/09 02:33:04;;;;;;;12.32;8.77;;;460.80;2380.80;;;;;;5098063;28;20023;-88
2021/06/09 02:35:36;;;;;;;12.65;8.32;;;436.10;2355.20;;;;;;5085380;28;20047;-90
2021/06/09 02:38:02;;;;;;;8.90;7.30;;;436.10;2355.20;;;;;;5090841;27;20030;-89
2021/06/09 02:40:29;;;;;;;12.93;8.95;;;436.10;2355.20;;;;;;5106595;28;20034;-90
2021/06/09 02:42:55;;;;;;;11.70;8.77;;;436.00;2355.20;;;;;;5097537;28;20035;-90
2021/06/09 02:45:21;;;;;;;11.23;9.07;;;435.90;2355.20;;;;;;5103718;28;20028;-90
2021/06/09 02:48:09;;;;;;;10.18;8.52;;;435.90;2355.20;;;;;;5098263;28;20058;-88
2021/06/09 02:50:35;;;;;;;11.32;8.60;;;435.90;2355.20;;;;;;5116097;28;20043;-86
2021/06/09 02:53:14;;;;;;;9.50;8.38;;;435.90;2355.20;;;;;;5096987;28;20050;-85
2021/06/09 02:55:50;;;;;;;12.00;8.82;;;435.90;2355.20;;;;;;5097719;28;20028;-86
2021/06/09 02:58:33;;;;;;;12.95;9.93;;;435.90;2355.20;;;;;;5096967;28;20419;-88
2021/06/09 03:01:07;;;;;;;12.02;8.35;;;435.80;2355.20;;;;;;5097394;28;20114;-88
2021/06/09 03:03:47;;;;;;;21.20;9.13;;;435.80;2355.20;;;;;;5099203;28;20044;-89
2021/06/09 03:06:33;;;;;;;10.32;8.98;;;435.80;2355.20;;;;;;5117950;27;20023;-87
2021/06/09 03:09:04;;;;;;;12.10;9.50;;;435.80;2355.20;;;;;;5084845;28;20114;-87
2021/06/09 03:11:55;;;;;;;14.05;8.45;;;435.70;2355.20;;;;;;5097489;28;20020;-88
2021/06/09 03:15:09;;;;;;;11.20;8.88;;;435.70;2355.20;;;;;;5097042;28;20510;-88
2021/06/09 03:17:15;;;;;;;14.30;9.55;;;435.70;2355.20;;;;;;5115168;28;20065;-89
2021/06/09 03:20:04;;;;;;;13.00;8.77;;;435.70;2355.20;;;;;;5096822;28;20032;-88
2021/06/09 03:22:39;;;;;;;13.10;9.23;;;435.70;2355.20;;;;;;5101350;27;20027;-88
2021/06/09 03:25:05;;;;;;;12.70;8.50;;;435.70;2355.20;;;;;;5106031;28;20495;-89
2021/06/09 03:27:54;;;;;;;12.30;9.10;;;435.80;2355.20;;;;;;5089439;28;20036;-90
2021/06/09 03:30:23;;;;;;;11.60;9.07;;;435.80;2355.20;;;;;;5085934;28;20093;-89
2021/06/09 03:33:09;;;;;;;12.73;9.00;;;435.80;2355.20;;;;;;5092038;28;20023;-89
2021/06/09 03:35:50;;;;;;;10.73;9.13;;;435.90;2355.20;;;;;;5097326;28;20032;-90
2021/06/09 03:38:33;;;;;;;12.35;8.93;;;435.90;2355.20;;;;;;5078542;28;20060;-89
2021/06/09 03:41:05;;;;;;;12.40;8.50;;;435.90;2355.20;;;;;;5097716;28;20040;-89
2021/06/09 03:43:34;;;;;;;10.00;8.40;;;436.00;2355.20;;;;;;5107526;27;20027;-91
2021/06/09 03:46:01;;;;;;;9.95;8.30;;;436.10;2355.20;;;;;;5118350;27;20034;-93
2021/06/09 03:48:30;;;;;;;10.38;8.80;;;460.80;2380.80;;;;;;5110316;28;20024;-92
2021/06/09 03:51:00;;;;;;;9.15;8.23;;;460.80;2380.80;;;;;;5088877;28;20023;-92
2021/06/09 03:53:27;;;;;;;15.57;9.80;;;460.90;2380.80;;;;;;5076672;28;20016;-91
2021/06/09 03:55:57;;;;;;;10.18;8.80;;;460.90;2380.80;;;;;;5098341;28;20019;-89
2021/06/09 03:58:25;;;;;;;11.75;9.32;;;461.00;2380.80;;;;;;5088586;28;20078;-90
2021/06/09 04:00:52;;;;;;;13.25;9.48;;;461.00;2380.80;;;;;;5106826;27;20502;-88
2021/06/09 04:03:19;;;;;;;10.70;9.40;;;461.00;2380.80;;;;;;5118933;27;20069;-88
2021/06/09 04:05:47;;;;;;;10.70;7.57;;;461.10;2380.80;;;;;;5095999;28;20061;-88
2021/06/09 04:08:15;;;;;;;11.38;8.98;;;461.00;2380.80;;;;;;5094219;28;20027;-91
2021/06/09 04:10:43;;;;;;;10.32;8.77;;;461.10;2380.80;;;;;;5109420;27;20485;-87
2021/06/09 04:13:09;;;;;;;15.07;8.20;;;461.10;2380.80;;;;;;5095571;28;20126;-91
2021/06/09 04:15:37;;;;;;;14.10;8.68;;;461.10;2380.80;;;;;;5081653;28;20551;-87
2021/06/09 04:18:03;;;;;;;9.98;8.80;;;461.30;2380.80;;;;;;5096653;28;20114;-88
2021/06/09 04:20:31;;;;;;;11.10;9.02;;;461.50;2380.80;;;;;;5104732;27;20028;-88
2021/06/09 04:22:57;;;;;;;11.45;8.68;;;461.60;2380.80;;;;;;5103752;28;20055;-90
2021/06/09 04:25:24;;;;;;;9.50;8.50;;;461.70;2380.80;;;;;;5088355;28;20024;-90
2021/06/09 04:27:51;;;;;;;10.13;8.82;;;486.40;2380.80;;;;;;5085050;28;20074;-90
2021/06/09 04:30:18;;;;;;;12.23;8.65;;;486.50;2380.80;;;;;;5082129;28;20071;-87
2021/06/09 04:33:03;;;;;;;12.00;8.23;;;486.70;2380.80;;;;;;5100579;28;20027;-87
2021/06/09 04:35:37;;;;;;;10.70;7.65;;;486.90;2380.80;;;;;;5081640;28;20476;-89
2021/06/09 04:38:04;;;;;;;10.38;7.25;;;487.10;2380.80;;;;;;5110176;27;20476;-90
2021/06/09 04:40:30;;;;;;;12.35;8.45;;;487.30;2380.80;;;;;;5100956;28;20032;-91
2021/06/09 04:42:57;;;;;;;12.30;8.43;;;512.00;2380.80;;;;;;5109460;28;20031;-91
2021/06/09 04:45:25;;;;;;;14.57;7.97;;;512.20;2380.80;;;;;;5087149;28;20028;-89
2021/06/09 04:47:51;;;;;;;15.27;9.00;;;512.20;2355.20;;;;;;5107993;28;20024;-87
2021/06/09 04:50:20;;;;;;;9.88;8.45;;;512.40;2355.20;;;;;;5093850;28;20016;-88
2021/06/09 04:52:47;;;;;;;12.45;8.30;;;512.60;2329.60;;;;;;5112818;28;20487;-87
2021/06/09 04:55:13;;;;;;;17.50;8.32;;;512.80;2304.00;;;;;;5109474;28;20498;-87
2021/06/09 04:57:39;;;;;;;11.75;8.25;;;537.60;2329.60;;;;;;5093063;28;20024;-89
2021/06/09 05:00:08;;;;;;;14.48;8.02;;;537.80;2304.00;;;;;;5095995;28;20038;-87
2021/06/09 05:02:34;;;;;;;10.75;7.80;;;538.00;2278.40;;;;;;5087052;28;20031;-86
2021/06/09 05:05:00;;;;;;;10.95;7.70;;;538.10;2278.40;;;;;;5109389;28;20041;-85
2021/06/09 05:07:26;;;;;;;9.68;7.32;;;538.30;2252.80;;;;;;5106485;28;20020;-85
2021/06/09 05:09:53;;;;;;;11.88;8.23;;;538.50;2227.20;;;;;;5099413;28;20027;-86
2021/06/09 05:12:29;;;;;;;19.10;7.50;;;538.50;2201.60;;;;;;5112220;28;20094;-88
2021/06/09 05:15:03;;;;;;;11.05;8.15;;;538.50;2227.20;;;;;;5090841;28;20484;-91
2021/06/09 05:17:47;;;;;;;13.73;9.35;;;563.30;2252.80;;;;;;5120546;27;20056;-89
2021/06/09 05:20:35;;;;;;;7.85;7.05;;;563.50;2252.80;;;;;;5086573;28;20089;-87
2021/06/09 05:23:25;;;;;;;10.95;8.27;;;563.70;2227.20;;;;;;5080544;28;20028;-87
2021/06/09 05:25:51;;;;;;;13.77;7.82;;;563.90;2227.20;;;;;;5079603;28;20480;-87
2021/06/09 05:28:19;;;;;;;10.70;7.45;;;564.00;2201.60;;;;;;5079779;28;20040;-86
2021/06/09 05:30:46;;;;;;;9.13;7.10;;;564.10;2176.00;;;;;;5095753;28;20027;-86
2021/06/09 05:33:13;;;;;;;11.20;6.72;;;589.20;2150.40;;;;;;5108410;28;20039;-86
2021/06/09 05:35:38;;;;;;;8.45;6.28;;;589.30;2124.80;;;;;;5096333;28;20023;-87
2021/06/09 05:38:05;;;;;;;7.88;6.75;;;589.50;2099.20;;;;;;5096354;28;20027;-89
2021/06/09 05:40:31;;;;;;;10.15;6.70;;;589.70;2073.60;;;;;;5093919;28;20093;-87
2021/06/09 05:42:57;;;;;;;9.90;7.00;;;614.50;2048.00;;;;;;5096457;28;20031;-89
2021/06/09 05:45:28;;;;;;;17.50;7.25;;;614.70;2048.00;;;;;;5090964;28;20528;-89
2021/06/09 05:47:54;;;;;;;6.32;5.72;;;614.70;2022.40;;;;;;5094947;27;20054;-88
2021/06/09 05:50:22;;;;;;;10.60;7.20;;;614.90;2022.40;;;;;;5098732;28;20476;-89
2021/06/09 05:52:50;;;;;;;11.98;7.55;;;615.00;1996.80;;;;;;5089443;27;20077;-88
2021/06/09 05:55:18;;;;;;;9.10;6.78;;;615.10;1996.80;;;;;;5106385;28;20133;-88
2021/06/09 05:57:48;;;;;;;12.32;8.02;;;615.30;1971.20;;;;;;5088730;28;20027;-88
2021/06/09 06:00:17;;;;;;;11.20;7.57;;;640.00;1971.20;;;;;;5092712;28;20043;-88
2021/06/09 06:02:44;;;;;;;9.10;6.28;;;640.10;1945.60;;;;;;5095110;28;20038;-89
2021/06/09 06:05:10;;;;;;;17.75;11.98;;;640.20;1920.00;;;;;;5091121;28;20044;-89
2021/06/09 06:07:36;;;;;;;10.95;6.15;;;640.40;1894.40;;;;;;5097869;28;20024;-89
2021/06/09 06:10:06;;;;;;;8.50;5.72;;;640.50;1894.40;;;;;;5097686;28;20083;-89
2021/06/09 06:12:32;;;;;;;9.88;5.55;;;640.70;1894.40;;;;;;5090412;28;20031;-88
2021/06/09 06:14:58;;;;;;;16.33;6.28;;;665.60;1894.40;;;;;;5132748;27;20039;-90
2021/06/09 06:17:24;;;;;;;9.90;6.55;;;665.80;1894.40;;;;;;5109773;28;20083;-90
2021/06/09 06:19:50;;;;;;;10.32;6.45;;;665.90;1868.80;;;;;;5110155;28;20057;-90
2021/06/09 06:22:17;;;;;;;10.90;6.25;;;666.00;1868.80;;;;;;5096485;28;20024;-90
2021/06/09 06:24:46;;;;;;;13.02;8.60;;;666.10;1868.80;;;;;;5111881;28;20040;-90
2021/06/09 06:27:13;;;;;;;7.93;6.55;;;666.30;1868.80;;;;;;5110500;28;20027;-90
2021/06/09 06:29:41;;;;;;;9.82;6.28;;;691.50;1817.60;;;;;;5106229;28;20032;-88
2021/06/09 06:32:09;;;;;;;7.53;5.03;;;691.50;1817.60;;;;;;5087125;28;20024;-87
2021/06/09 06:34:45;;;;;;;10.73;5.30;;;691.70;1792.00;;;;;;5096321;28;20469;-87
2021/06/09 06:37:12;;;;;;;12.05;5.95;;;692.10;1740.80;;;;;;5098331;28;20043;-88
2021/06/09 06:39:38;;;;;;;9.88;5.30;;;716.80;1766.40;;;;;;5108557;28;20024;-88
2021/06/09 06:42:04;;;;;;;10.18;5.10;;;716.90;1766.40;;;;;;5091528;28;20046;-88
2021/06/09 06:44:31;;;;;;;8.15;4.72;;;717.00;1766.40;;;;;;5104590;28;20042;-89
2021/06/09 06:46:57;;;;;;;7.97;4.97;;;717.10;1740.80;;;;;;5105221;27;20027;-88
2021/06/09 06:49:25;;;;;;;8.38;5.50;;;717.40;1740.80;;;;;;5098052;28;20068;-89
2021/06/09 06:51:51;;;;;;;8.27;4.75;;;717.60;1715.20;;;;;;5104916;27;20023;-89
2021/06/09 06:54:19;;;;;;;5.82;4.50;;;742.60;1715.20;;;;;;5112084;27;20357;-89
2021/06/09 06:56:49;;;;;;;8.65;5.70;;;742.90;1689.60;;;;;;5123132;27;20076;-89
2021/06/09 06:59:16;;;;;;;8.82;5.13;;;743.10;1689.60;;;;;;5098091;28;20047;-90
2021/06/09 07:01:42;;;;;;;5.38;4.05;;;743.10;1664.00;;;;;;5096959;28;20030;-89
2021/06/09 07:04:08;;;;;;;5.68;4.53;;;743.30;1612.80;;;;;;5088313;28;20023;-89
2021/06/09 07:06:35;;;;;;;8.13;4.43;;;768.00;1612.80;;;;;;5102949;28;20024;-90
2021/06/09 07:09:03;;;;;;;6.20;4.82;;;768.00;1587.20;;;;;;5103167;28;20019;-90
2021/06/09 07:11:29;;;;;;;5.97;4.65;;;743.20;1587.20;;;;;;5097970;28;20061;-90
2021/06/09 07:13:58;;;;;;;6.65;4.07;;;743.20;1587.20;;;;;;5097682;28;20032;-90
2021/06/09 07:16:29;;;;;;;6.57;3.75;;;743.20;1561.60;;;;;;5097796;28;20020;-90
2021/06/09 07:18:57;;;;;;;7.00;5.00;;;743.10;1561.60;;;;;;5096542;28;20055;-90
2021/06/09 07:21:23;;;;;;;6.60;4.38;;;743.30;1536.00;;;;;;5105354;27;20027;-89
2021/06/09 07:23:49;;;;;;;6.13;4.30;;;768.00;1536.00;;;;;;5099658;28;20044;-89
2021/06/09 07:26:18;;;;;;;6.85;4.60;;;768.10;1536.00;;;;;;5104706;27;20031;-90
2021/06/09 07:28:51;;;;;;;5.70;4.60;;;768.10;1561.60;;;;;;5111941;27;20117;-90
2021/06/09 07:31:22;;;;;;;8.82;4.57;;;768.10;1536.00;;;;;;5103852;27;20023;-89
2021/06/09 07:33:48;;;;;;;6.90;4.68;;;768.10;1561.60;;;;;;5093733;28;20019;-89
2021/06/09 07:36:19;;;;;;;5.97;3.53;;;768.20;1536.00;;;;;;5101340;28;20026;-89
2021/06/09 07:38:50;;;;;;;6.25;4.40;;;768.50;1510.40;;;;;;5115144;27;20050;-90
2021/06/09 07:41:17;;;;;;;5.60;3.70;;;768.70;1484.80;;;;;;5097398;28;20027;-90
2021/06/09 07:43:48;;;;;;;6.53;4.28;;;768.60;1459.20;;;;;;5092804;28;20112;-90
2021/06/09 07:46:18;;;;;;;5.93;4.35;;;768.80;1459.20;;;;;;5099847;27;20048;-90
2021/06/09 07:48:50;;;;;;;9.23;4.68;;;793.80;1459.20;;;;;;5106825;28;20091;-90
2021/06/09 07:51:17;;;;;;;10.73;5.43;;;794.00;1459.20;;;;;;5093791;28;20116;-91
2021/06/09 07:53:46;;;;;;;6.68;5.15;;;794.20;1459.20;;;;;;5095304;28;20414;-90
2021/06/09 07:56:15;;;;;;;7.25;4.28;;;794.50;1433.60;;;;;;5098799;27;20020;-90
2021/06/09 07:58:43;;;;;;;5.60;4.72;;;819.20;1433.60;;;;;;5113255;28;20135;-90
2021/06/09 08:01:09;;;;;;;7.38;4.57;;;794.50;1433.60;;;;;;5096639;28;20497;-91
2021/06/09 08:03:37;;;;;;;8.38;4.68;;;794.50;1433.60;;;;;;5101122;28;20031;-90
2021/06/09 08:06:04;;;;;;;5.13;4.57;;;819.30;1408.00;;;;;;5088258;28;20024;-90
2021/06/09 08:08:31;;;;;;;7.68;4.80;;;819.20;1408.00;;;;;;5078502;28;20066;-88
2021/06/09 08:10:58;;;;;;;5.18;4.00;;;819.80;1408.00;;;;;;5100150;28;20425;-88
2021/06/09 08:13:24;;;;;;;5.53;4.55;;;819.80;1331.20;;;;;;5089572;28;20069;-89
2021/06/09 08:15:51;;;;;;;6.43;4.50;;;819.90;1331.20;;;;;;5089788;28;20027;-89
2021/06/09 08:18:17;;;;;;;6.07;4.90;;;819.90;1331.20;;;;;;5081085;28;20101;-85
2021/06/09 08:21:02;;;;;;;7.68;5.00;;;819.80;1356.80;;;;;;5086606;28;20066;-85
2021/06/09 08:23:27;;;;;;;8.57;4.70;;;820.00;1356.80;;;;;;5090716;28;20177;-84
2021/06/09 08:25:54;;;;;;;6.50;4.57;;;820.10;1331.20;;;;;;5088970;28;20482;-89
2021/06/09 08:28:20;;;;;;;6.25;4.18;;;844.80;1305.60;;;;;;5100616;28;20043;-90
2021/06/09 08:30:46;;;;;;;7.93;4.40;;;819.90;1305.60;;;;;;5096961;28;20459;-89
2021/06/09 08:33:11;;;;;;;5.35;4.32;;;819.80;1305.60;;;;;;5081852;28;20032;-89
2021/06/09 08:35:37;;;;;;;8.90;5.50;;;819.90;1280.00;;;;;;5079173;28;20040;-88
2021/06/09 08:38:03;;;;;;;9.18;4.68;;;819.80;1305.60;;;;;;5112327;28;20103;-89
2021/06/09 08:40:31;;;;;;;9.05;4.65;;;819.90;1305.60;;;;;;5101139;28;20494;-89
2021/06/09 08:42:58;;;;;;;7.88;4.78;;;820.00;1280.00;;;;;;5093737;28;20422;-88
2021/06/09 08:45:25;;;;;;;6.38;4.68;;;845.00;1280.00;;;;;;5088074;28;20045;-84
2021/06/09 08:47:51;;;;;;;5.57;4.45;;;845.00;1280.00;;;;;;5090984;28;20035;-84
2021/06/09 08:50:19;;;;;;;6.70;4.60;;;845.50;1254.40;;;;;;5101484;28;20026;-88
2021/06/09 08:52:50;;;;;;;8.63;5.00;;;845.50;1254.40;;;;;;5095584;28;20432;-88
2021/06/09 08:55:16;;;;;;;8.48;4.60;;;845.60;1228.80;;;;;;5087700;28;20038;-88
2021/06/09 08:57:43;;;;;;;5.65;4.45;;;845.40;1228.80;;;;;;5092120;28;20045;-89
2021/06/09 09:00:11;;;;;;;6.88;4.45;;;870.60;1177.60;;;;;;5088471;28;20023;-87
2021/06/09 09:02:39;;;;;;;5.32;4.57;;;870.40;1177.60;;;;;;5086682;28;20020;-87
2021/06/09 09:05:07;;;;;;;7.15;4.75;;;845.70;1152.00;;;;;;5099698;28;20031;-89
2021/06/09 09:07:33;;;;;;;7.22;4.72;;;870.40;1152.00;;;;;;5103285;28;20032;-86
2021/06/09 09:09:59;;;;;;;6.80;4.38;;;870.80;1152.00;;;;;;5104897;28;20023;-87
2021/06/09 09:12:25;;;;;;;9.27;5.05;;;870.80;1126.40;;;;;;5090791;28;20023;-87
2021/06/09 09:14:51;;;;;;;10.77;4.60;;;871.10;1126.40;;;;;;5088567;28;20464;-86
2021/06/09 09:17:17;;;;;;;7.85;4.95;;;896.10;1075.20;;;;;;5096947;28;20377;-87
2021/06/09 09:19:44;;;;;;;8.20;5.05;;;871.10;1075.20;;;;;;5089050;28;20472;-87
2021/06/09 09:22:21;;;;;;;6.30;4.38;;;871.30;1100.80;;;;;;5090592;28;20043;-88
2021/06/09 09:24:51;;;;;;;6.75;4.82;;;896.30;1049.60;;;;;;5091409;28;20031;-87
2021/06/09 09:27:28;;;;;;;7.38;4.63;;;921.60;1024.00;;;;;;5086531;28;20107;-87
2021/06/09 09:30:04;;;;;;;5.55;4.15;;;896.80;1024.00;;;;;;5088653;28;20040;-88
2021/06/09 09:32:30;;;;;;;6.70;4.60;;;896.80;998.40;;;;;;5088053;28;20043;-88
2021/06/09 09:35:11;;;;;;;7.22;4.78;;;921.80;1024.00;;;;;;5089371;28;20058;-87
2021/06/09 09:37:39;;;;;;;7.45;4.25;;;896.90;998.40;;;;;;5089989;28;20036;-88
2021/06/09 09:40:15;;;;;;;7.28;4.72;;;896.70;998.40;;;;;;5106940;28;20037;-88
2021/06/09 09:42:51;;;;;;;7.90;4.75;;;921.70;1024.00;;;;;;5091176;28;20034;-87
2021/06/09 09:45:24;;;;;;;5.28;4.10;;;921.60;998.40;;;;;;5095467;28;20031;-88
2021/06/09 09:48:13;;;;;;;7.30;4.25;;;921.60;972.80;;;;;;5090363;28;20116;-86
2021/06/09 09:50:47;;;;;;;7.40;4.28;;;896.80;972.80;;;;;;5095625;28;20376;-82
2021/06/09 09:53:25;;;;;;;6.45;3.92;;;922.10;947.20;;;;;;5101033;28;20020;-83
2021/06/09 09:55:55;;;;;;;7.50;5.60;;;947.30;921.60;;;;;;5078191;28;20036;-84
2021/06/09 09:58:21;;;;;;;10.90;5.13;;;947.60;921.60;;;;;;5078777;28;20180;-86
2021/06/09 10:00:46;;;;;;;14.30;5.20;;;947.50;921.60;;;;;;5086868;28;20489;-83
2021/06/09 10:03:14;;;;;;;7.10;4.75;;;947.50;896.00;;;;;;5090943;28;20028;-84
2021/06/09 10:05:40;;;;;;;7.28;5.03;;;947.20;921.60;;;;;;5105197;28;20035;-84
2021/06/09 10:08:06;;;;;;;8.68;4.75;;;947.30;896.00;;;;;;5085867;28;20024;-83
2021/06/09 10:10:32;;;;;;;5.00;4.47;;;947.70;896.00;;;;;;5104921;28;20376;-85
2021/06/09 10:13:13;;;;;;;5.35;4.80;;;948.00;870.40;;;;;;5110636;28;20031;-85
2021/06/09 10:15:48;;;;;;;5.57;4.75;;;972.90;896.00;;;;;;5108292;28;20024;-84
2021/06/09 10:18:15;;;;;;;9.00;5.37;;;973.50;870.40;;;;;;5090911;28;20028;-84
2021/06/09 10:20:42;;;;;;;6.97;4.68;;;973.30;870.40;;;;;;5097050;28;20096;-86
2021/06/09 10:23:45;;;;;;;7.72;4.63;;;973.10;896.00;;;;;;5087987;28;20118;-83
2021/06/09 10:26:15;;;;;;;5.30;3.83;;;947.70;870.40;;;;;;5108784;28;20036;-85
2021/06/09 10:29:10;;;;;;;5.75;4.85;;;948.00;844.80;;;;;;5083500;28;20131;-84
2021/06/09 10:31:40;;;;;;;5.07;3.40;;;973.20;870.40;;;;;;5083926;28;20028;-85
2021/06/09 10:34:05;;;;;;;4.68;3.70;;;973.70;844.80;;;;;;5095466;28;20051;-85
2021/06/09 10:36:34;;;;;;;6.13;3.83;;;973.10;844.80;;;;;;5092984;28;20058;-84
2021/06/09 10:39:01;;;;;;;5.03;3.85;;;948.00;844.80;;;;;;5098551;28;20051;-83
2021/06/09 10:41:28;;;;;;;5.95;3.85;;;947.20;844.80;;;;;;5108125;28;20498;-85
2021/06/09 10:43:57;;;;;;;4.35;3.42;;;947.80;844.80;;;;;;5092569;28;20093;-85
2021/06/09 10:46:26;;;;;;;4.47;4.05;;;947.70;844.80;;;;;;5113654;28;20106;-86
2021/06/09 10:48:56;;;;;;;6.32;3.97;;;947.80;870.40;;;;;;5110924;28;20092;-85
2021/06/09 10:51:24;;;;;;;6.63;4.22;;;973.10;870.40;;;;;;5090777;28;20023;-84
2021/06/09 10:53:50;;;;;;;4.47;3.70;;;973.10;870.40;;;;;;5109209;28;20048;-84
2021/06/09 10:56:17;;;;;;;6.78;3.15;;;973.40;819.20;;;;;;5105617;28;20028;-86
2021/06/09 10:58:44;;;;;;;6.05;3.90;;;973.60;819.20;;;;;;5093302;28;20056;-88
2021/06/09 11:01:10;;;;;;;5.78;3.80;;;973.20;844.80;;;;;;5086635;28;20039;-89
2021/06/09 11:03:37;;;;;;;4.07;3.30;;;972.90;844.80;;;;;;5093274;28;20031;-87
2021/06/09 11:06:04;;;;;;;5.30;3.60;;;973.10;844.80;;;;;;5097756;28;20046;-88
2021/06/09 11:08:30;;;;;;;5.15;3.47;;;973.00;844.80;;;;;;5091983;28;20031;-89
2021/06/09 11:10:57;;;;;;;5.55;4.00;;;998.40;844.80;;;;;;5082690;28;20028;-88
2021/06/09 11:13:35;;;;;;;4.10;3.40;;;973.10;844.80;;;;;;5105043;28;20012;-88
2021/06/09 11:16:07;;;;;;;6.80;3.75;;;973.00;819.20;;;;;;5126412;27;20028;-88
2021/06/09 11:18:42;;;;;;;7.63;4.32;;;973.10;844.80;;;;;;5087707;28;20036;-88
2021/06/09 11:21:10;;;;;;;5.43;4.32;;;947.90;819.20;;;;;;5102798;28;20027;-89
2021/06/09 11:23:40;;;;;;;6.03;4.15;;;973.30;819.20;;;;;;5085632;28;20031;-88
2021/06/09 11:26:23;;;;;;;6.13;3.85;;;973.40;819.20;;;;;;5087449;28;20102;-89
2021/06/09 11:28:49;;;;;;;3.97;3.10;;;998.60;819.20;;;;;;5104616;28;20028;-84
2021/06/09 11:31:26;;;;;;;3.88;3.30;;;973.70;793.60;;;;;;5117525;28;20023;-84
2021/06/09 11:34:01;;;;;;;7.07;3.78;;;998.60;819.20;;;;;;5109618;28;20031;-85
2021/06/09 11:36:39;;;;;;;;;;;998.70;819.20;;;;;;5125080;28;20004;-87
2021/06/09 11:39:19;;;;;;;4.72;3.78;;;1024.20;768.00;;;;;;5112133;28;19892;-88
2021/06/09 11:41:46;;;;;;;5.78;4.05;;;1024.20;793.60;;;;;;5110764;28;20028;-85
2021/06/09 11:44:31;;;;;;;6.50;3.75;;;1024.00;793.60;;;;;;5107032;28;20399;-85
2021/06/09 11:47:35;;;;;;;8.68;4.35;;;973.70;819.20;;;;;;5112008;28;20089;-89
2021/06/09 11:50:27;;;;;;;5.32;4.60;;;973.70;819.20;;;;;;5048991;28;20029;-88
2021/06/09 11:52:57;;;;;;;5.75;3.95;;;998.40;844.80;;;;;;5037636;28;20013;-88
2021/06/09 11:55:25;;;;;;;5.18;3.33;;;973.70;793.60;;;;;;5026269;28;20022;-88
2021/06/09 11:58:11;;;;;;;8.00;4.22;;;998.90;768.00;;;;;;5037579;28;20046;-87
2021/06/09 12:00:59;;;;;;;8.73;4.18;;;1024.10;768.00;;;;;;5041440;28;20253;-87
2021/06/09 12:03:25;;;;;;;6.38;3.90;;;1024.30;768.00;;;;;;5041826;28;20025;-87
2021/06/09 12:05:50;;;;;;;5.63;3.30;;;1049.60;793.60;;;;;;5031311;28;20046;-90
2021/06/09 12:08:16;;;;;;;4.60;3.60;;;1049.60;768.00;;;;;;5046280;28;20069;-88
2021/06/09 12:10:42;;;;;;;3.65;3.30;;;1050.20;768.00;;;;;;5062055;28;20029;-86
2021/06/09 12:13:07;;;;;;;5.32;3.20;;;1049.90;768.00;;;;;;5051690;28;20402;-84
2021/06/09 12:15:33;;;;;;;4.88;3.20;;;1050.10;742.40;;;;;;5050593;28;20047;-85
2021/06/09 12:17:59;;;;;;;3.50;3.17;;;1049.90;768.00;;;;;;5050335;28;20044;-85
2021/06/09 12:20:25;;;;;;;5.03;3.50;;;1024.30;742.40;;;;;;5048958;28;20041;-84
2021/06/09 12:22:54;;;;;;;5.43;3.88;;;998.60;819.20;;;;;;5053184;28;20104;-88
2021/06/09 12:25:28;;;;;;;5.28;3.70;;;973.00;819.20;;;;;;5094514;28;20026;-88
2021/06/09 12:28:10;;;;;;;5.90;3.63;;;947.40;819.20;;;;;;5088862;28;20032;-87